createdAt,value
2022-10-19T00:00:43.072Z,84.93
2022-10-19T00:06:51.541Z,85.33
2022-10-19T00:09:53.878Z,85.40
2022-10-19T00:12:56.032Z,85.93
2022-10-19T00:15:58.351Z,85.58
2022-10-19T00:19:02.266Z,85.04
2022-10-19T00:22:05.182Z,85.77
2022-10-19T00:25:08.341Z,86.20
2022-10-19T00:28:10.711Z,86.82
2022-10-19T00:31:16.286Z,85.99
2022-10-19T00:34:18.662Z,85.75
2022-10-19T00:37:20.733Z,85.78
2022-10-19T00:40:23.080Z,86.06
2022-10-19T00:43:27.986Z,85.69
2022-10-19T00:46:33.968Z,85.50
2022-10-19T00:49:42.689Z,85.33
2022-10-19T00:52:45.152Z,85.86
2022-10-19T00:55:47.551Z,85.53
2022-10-19T00:58:50.206Z,85.17
2022-10-19T01:01:53.366Z,84.17
2022-10-19T01:04:56.069Z,83.15
2022-10-19T01:07:58.347Z,82.66
2022-10-19T01:11:27.006Z,81.96
2022-10-19T01:14:35.275Z,81.65
2022-10-19T01:17:57.997Z,80.38
2022-10-19T01:21:02.781Z,81.47
2022-10-19T01:24:23.495Z,81.34
2022-10-19T01:28:00.313Z,82.58
2022-10-19T01:31:27.087Z,81.84
2022-10-19T01:34:51.338Z,82.06
2022-10-19T01:38:24.667Z,82.72
2022-10-19T01:41:41.326Z,83.30
2022-10-19T01:44:53.157Z,82.90
2022-10-19T01:48:12.000Z,83.45
2022-10-19T01:51:19.454Z,84.00
2022-10-19T01:54:24.102Z,83.44
2022-10-19T01:57:36.895Z,83.14
2022-10-19T02:00:42.661Z,83.75
2022-10-19T02:03:45.740Z,84.01
2022-10-19T02:06:50.767Z,84.50
2022-10-19T02:09:52.892Z,84.93
2022-10-19T02:12:56.758Z,85.03
2022-10-19T02:16:03.379Z,85.09
2022-10-19T02:19:08.678Z,86.06
2022-10-19T02:22:12.371Z,85.63
2022-10-19T02:25:15.587Z,85.71
2022-10-19T02:28:18.157Z,86.24
2022-10-19T02:31:21.145Z,85.76
2022-10-19T02:34:23.365Z,84.32
2022-10-19T02:37:25.931Z,82.26
2022-10-19T02:40:32.442Z,84.36
2022-10-19T02:43:38.184Z,84.71
2022-10-19T02:46:55.178Z,84.66
2022-10-19T02:49:57.545Z,84.71
2022-10-19T02:53:00.022Z,84.09
2022-10-19T02:56:02.368Z,84.46
2022-10-19T02:59:04.702Z,85.01
2022-10-19T03:02:07.559Z,85.88
2022-10-19T03:05:09.956Z,85.20
2022-10-19T03:08:12.309Z,85.93
2022-10-19T03:11:14.423Z,86.04
2022-10-19T03:14:16.759Z,85.90
2022-10-19T03:17:18.865Z,86.25
2022-10-19T03:20:21.250Z,86.30
2022-10-19T03:23:23.308Z,85.47
2022-10-19T03:26:25.631Z,85.37
2022-10-19T03:29:27.728Z,85.30
2022-10-19T03:32:30.085Z,86.30
2022-10-19T03:35:32.181Z,86.51
2022-10-19T03:38:34.502Z,86.54
2022-10-19T03:41:37.484Z,86.17
2022-10-19T03:44:39.819Z,86.68
2022-10-19T03:47:41.922Z,85.57
2022-10-19T03:50:44.271Z,85.68
2022-10-19T03:53:46.965Z,85.49
2022-10-19T03:56:49.309Z,85.75
2022-10-19T03:59:51.373Z,86.02
2022-10-19T04:02:53.706Z,86.23
2022-10-19T04:06:05.603Z,86.58
2022-10-19T04:09:09.029Z,86.26
2022-10-19T04:12:11.468Z,86.15
2022-10-19T04:15:13.582Z,86.48
2022-10-19T04:18:15.930Z,86.28
2022-10-19T04:21:27.193Z,86.13
2022-10-19T04:24:29.728Z,86.66
2022-10-19T04:27:32.125Z,86.48
2022-10-19T04:30:34.791Z,86.15
2022-10-19T04:33:36.967Z,85.74
2022-10-19T04:36:39.350Z,86.71
2022-10-19T04:39:43.248Z,86.51
2022-10-19T04:42:45.622Z,86.54
2022-10-19T04:45:47.920Z,86.33
2022-10-19T04:48:50.811Z,86.34
2022-10-19T04:51:53.036Z,86.19
2022-10-19T04:54:55.382Z,86.04
2022-10-19T04:57:57.438Z,84.44
2022-10-19T05:00:59.842Z,83.90
2022-10-19T05:04:03.087Z,84.35
2022-10-19T05:07:05.417Z,84.03
2022-10-19T05:10:09.112Z,84.07
2022-10-19T05:13:11.503Z,84.00
2022-10-19T05:16:16.679Z,83.38
2022-10-19T05:19:19.021Z,83.15
2022-10-19T05:22:21.114Z,83.44
2022-10-19T05:25:23.468Z,84.37
2022-10-19T05:28:25.695Z,84.93
2022-10-19T05:31:31.109Z,85.38
2022-10-19T05:34:33.406Z,85.67
2022-10-19T05:37:36.074Z,85.34
2022-10-19T05:40:38.510Z,86.09
2022-10-19T05:43:41.916Z,86.24
2022-10-19T05:46:44.803Z,86.56
2022-10-19T05:49:47.765Z,87.62
2022-10-19T05:52:49.964Z,88.84
2022-10-19T05:55:52.478Z,89.96
2022-10-19T05:58:56.672Z,90.23
2022-10-19T06:01:59.155Z,89.89
2022-10-19T06:05:01.661Z,88.85
2022-10-19T06:08:03.908Z,87.86
2022-10-19T06:11:13.203Z,86.66
2022-10-19T06:14:16.634Z,85.28
2022-10-19T06:17:19.114Z,83.92
2022-10-19T06:20:21.279Z,82.85
2022-10-19T06:23:23.613Z,82.76
2022-10-19T06:26:26.807Z,81.81
2022-10-19T06:29:29.257Z,81.75
2022-10-19T06:32:32.336Z,80.68
2022-10-19T06:35:35.377Z,80.87
2022-10-19T06:38:37.799Z,80.48
2022-10-19T06:41:40.125Z,80.47
2022-10-19T06:44:43.933Z,80.04
2022-10-19T06:51:06.429Z,78.57
2022-10-19T06:54:09.059Z,78.29
2022-10-19T06:57:11.138Z,76.87
2022-10-19T07:00:14.099Z,76.40
2022-10-19T07:03:16.177Z,75.68
2022-10-19T07:06:19.072Z,75.79
2022-10-19T07:09:22.384Z,76.31
2022-10-19T07:12:24.707Z,76.35
2022-10-19T07:15:26.770Z,76.13
2022-10-19T07:18:29.181Z,75.61
2022-10-19T07:21:31.297Z,75.17
2022-10-19T07:24:33.640Z,75.10
2022-10-19T07:27:37.805Z,75.36
2022-10-19T07:30:40.347Z,75.43
2022-10-19T07:33:42.436Z,75.27
2022-10-19T07:36:47.984Z,75.23
2022-10-19T07:39:50.092Z,73.88
2022-10-19T07:42:52.424Z,74.61
2022-10-19T07:46:02.027Z,75.25
2022-10-19T07:49:10.798Z,73.78
2022-10-19T07:52:12.881Z,74.21
2022-10-19T07:55:15.437Z,73.66
2022-10-19T07:58:17.616Z,73.22
2022-10-19T08:01:22.541Z,73.92
2022-10-19T08:04:56.034Z,73.45
2022-10-19T08:07:47.012Z,73.62
2022-10-19T08:10:49.416Z,73.39
2022-10-19T08:13:52.194Z,73.45
2022-10-19T08:16:54.512Z,73.86
2022-10-19T08:19:56.594Z,73.63
2022-10-19T08:22:59.210Z,72.36
2022-10-19T08:26:01.351Z,72.24
2022-10-19T08:29:06.809Z,71.40
2022-10-19T08:32:08.966Z,69.85
2022-10-19T08:35:11.566Z,67.97
2022-10-19T08:38:13.756Z,67.56
2022-10-19T08:45:28.349Z,65.63
2022-10-19T08:48:33.783Z,63.16
2022-10-19T08:51:41.773Z,61.38
2022-10-19T08:54:51.903Z,60.63
2022-10-19T08:58:27.580Z,58.41
2022-10-19T09:01:40.983Z,58.94
2022-10-19T09:04:49.400Z,56.83
2022-10-19T09:07:53.885Z,57.67
2022-10-19T09:10:57.290Z,56.17
2022-10-19T09:14:40.096Z,57.80
2022-10-19T09:17:42.212Z,57.77
2022-10-19T09:20:47.995Z,55.55
2022-10-19T09:24:26.961Z,57.44
2022-10-19T09:27:35.444Z,57.77
2022-10-19T09:30:40.426Z,56.27
2022-10-19T09:33:47.224Z,57.23
2022-10-19T09:36:56.057Z,56.86
2022-10-19T09:39:58.378Z,57.39
2022-10-19T09:43:08.743Z,57.50
2022-10-19T09:46:20.691Z,58.46
2022-10-19T09:49:40.648Z,57.51
2022-10-19T09:52:45.852Z,57.98
2022-10-19T09:55:56.612Z,56.82
2022-10-19T09:58:59.023Z,57.82
2022-10-19T10:02:19.228Z,55.77
2022-10-19T10:05:37.638Z,57.23
2022-10-19T10:08:57.869Z,57.83
2022-10-19T10:12:00.444Z,58.25
2022-10-19T10:15:05.984Z,57.51
2022-10-19T10:18:16.342Z,58.02
2022-10-19T10:21:26.474Z,57.53
2022-10-19T10:24:31.054Z,56.98
2022-10-19T10:27:36.678Z,58.24
2022-10-19T10:30:39.438Z,57.80
2022-10-19T10:33:45.880Z,58.69
2022-10-19T10:36:51.287Z,60.22
2022-10-19T10:39:57.687Z,59.13
2022-10-19T10:43:08.682Z,57.57
2022-10-19T10:46:19.660Z,54.35
2022-10-19T10:49:28.917Z,53.05
2022-10-19T10:52:31.733Z,52.80
2022-10-19T10:55:34.437Z,51.81
2022-10-19T10:58:47.889Z,51.92
2022-10-19T11:02:09.610Z,49.91
2022-10-19T11:05:14.575Z,49.15
2022-10-19T11:08:38.514Z,48.20
2022-10-19T11:11:45.077Z,48.66
2022-10-19T11:14:59.331Z,47.58
2022-10-19T11:18:07.854Z,46.58
2022-10-19T11:21:12.912Z,44.85
2022-10-19T11:24:41.881Z,44.62
2022-10-19T11:28:04.810Z,42.93
2022-10-19T11:31:14.007Z,44.15
2022-10-19T11:34:57.978Z,44.79
2022-10-19T11:38:25.131Z,45.22
2022-10-19T11:41:50.410Z,46.22
2022-10-19T11:45:10.954Z,46.90
2022-10-19T11:48:41.676Z,47.93
2022-10-19T11:51:57.558Z,48.28
2022-10-19T11:55:02.636Z,48.72
2022-10-19T11:58:34.499Z,49.08
2022-10-19T12:01:58.615Z,48.52
2022-10-19T12:05:27.921Z,47.37
2022-10-19T12:08:30.091Z,47.11
2022-10-19T12:11:42.016Z,47.33
2022-10-19T12:14:48.830Z,47.39
2022-10-19T12:17:56.126Z,45.78
2022-10-19T12:21:02.679Z,45.32
2022-10-19T12:24:14.420Z,43.68
2022-10-19T12:27:18.520Z,44.71
2022-10-19T12:30:23.484Z,46.06
2022-10-19T12:33:46.749Z,46.15
2022-10-19T12:36:54.925Z,46.40
2022-10-19T12:40:15.343Z,45.14
2022-10-19T12:43:23.957Z,46.27
2022-10-19T12:46:42.890Z,44.75
2022-10-19T12:49:49.931Z,43.64
2022-10-19T12:52:54.453Z,42.82
2022-10-19T12:56:13.675Z,44.50
2022-10-19T12:59:26.125Z,44.12
2022-10-19T13:05:41.553Z,42.54
2022-10-19T13:08:53.019Z,40.68
2022-10-19T13:12:25.794Z,40.25
2022-10-19T13:15:50.218Z,40.74
2022-10-19T13:19:01.539Z,41.51
2022-10-19T13:22:26.949Z,41.14
2022-10-19T13:25:32.738Z,38.41
2022-10-19T13:28:37.741Z,38.95
2022-10-19T13:31:39.896Z,39.61
2022-10-19T13:34:42.221Z,40.08
2022-10-19T13:37:44.694Z,41.30
2022-10-19T13:40:50.066Z,41.66
2022-10-19T13:44:16.935Z,42.45
2022-10-19T13:47:19.181Z,42.59
2022-10-19T13:50:43.666Z,43.01
2022-10-19T13:54:19.146Z,43.00
2022-10-19T13:57:59.142Z,43.54
2022-10-19T14:01:18.501Z,44.19
2022-10-19T14:04:33.335Z,45.33
2022-10-19T14:08:14.384Z,44.89
2022-10-19T14:11:32.138Z,45.67
2022-10-19T14:14:44.333Z,45.93
2022-10-19T14:17:46.772Z,46.77
2022-10-19T14:21:05.798Z,46.53
2022-10-19T14:24:34.257Z,46.35
2022-10-19T14:27:36.962Z,47.40
2022-10-19T14:30:44.312Z,46.72
2022-10-19T14:33:50.541Z,46.22
2022-10-19T14:36:52.933Z,46.79
2022-10-19T14:40:16.476Z,46.67
2022-10-19T14:43:24.292Z,45.96
2022-10-19T14:46:30.963Z,46.51
2022-10-19T14:49:33.363Z,46.55
2022-10-19T14:52:39.508Z,47.12
2022-10-19T14:55:42.626Z,45.88
2022-10-19T14:58:56.300Z,46.08
2022-10-19T15:02:02.483Z,46.81
2022-10-19T15:05:06.577Z,46.85
2022-10-19T15:08:17.101Z,46.97
2022-10-19T15:11:37.870Z,47.21
2022-10-19T15:14:40.562Z,47.43
2022-10-19T15:17:54.380Z,47.77
2022-10-19T15:21:14.042Z,48.38
2022-10-19T15:24:28.158Z,48.74
2022-10-19T15:27:36.012Z,48.85
2022-10-19T15:30:38.163Z,48.47
2022-10-19T15:33:45.059Z,49.36
2022-10-19T15:37:01.285Z,49.85
2022-10-19T15:40:22.439Z,50.44
2022-10-19T15:43:30.486Z,50.72
2022-10-19T15:47:12.349Z,50.81
2022-10-19T15:50:31.986Z,52.20
2022-10-19T15:53:34.330Z,52.45
2022-10-19T15:56:39.015Z,52.71
2022-10-19T15:59:41.360Z,51.65
2022-10-19T16:02:43.717Z,51.44
2022-10-19T16:05:47.124Z,51.93
2022-10-19T16:08:51.209Z,52.53
2022-10-19T16:11:56.957Z,51.99
2022-10-19T16:14:59.068Z,51.90
2022-10-19T16:18:01.487Z,51.99
2022-10-19T16:21:03.874Z,51.40
2022-10-19T16:24:06.384Z,50.59
2022-10-19T16:27:09.332Z,50.52
2022-10-19T16:30:12.784Z,50.13
2022-10-19T16:33:14.853Z,49.89
2022-10-19T16:36:20.170Z,50.47
2022-10-19T16:39:25.348Z,49.94
2022-10-19T16:42:30.438Z,49.81
2022-10-19T16:45:32.871Z,50.03
2022-10-19T16:48:35.400Z,50.21
2022-10-19T16:51:38.241Z,50.11
2022-10-19T16:54:40.653Z,50.59
2022-10-19T16:57:42.712Z,50.55
2022-10-19T17:00:45.027Z,50.73
2022-10-19T17:03:48.638Z,50.67
2022-10-19T17:06:50.991Z,50.66
2022-10-19T17:09:54.823Z,50.84
2022-10-19T17:12:57.447Z,50.88
2022-10-19T17:16:03.048Z,50.95
2022-10-19T17:19:07.671Z,50.97
2022-10-19T17:22:09.724Z,51.76
2022-10-19T17:25:12.078Z,52.24
2022-10-19T17:28:14.264Z,52.67
2022-10-19T17:31:16.601Z,53.25
2022-10-19T17:34:19.179Z,52.62
2022-10-19T17:37:21.525Z,53.11
2022-10-19T17:40:23.590Z,52.84
2022-10-19T17:43:25.918Z,53.63
2022-10-19T17:46:30.941Z,53.97
2022-10-19T17:49:33.272Z,54.39
2022-10-19T17:52:35.348Z,54.82
2022-10-19T17:55:37.669Z,54.60
2022-10-19T17:58:40.196Z,55.11
2022-10-19T18:01:42.706Z,54.79
2022-10-19T18:04:45.023Z,55.13
2022-10-19T18:07:49.119Z,55.90
2022-10-19T18:11:00.259Z,56.07
2022-10-19T18:14:02.505Z,56.14
2022-10-19T18:17:05.077Z,56.16
2022-10-19T18:20:07.815Z,56.84
2022-10-19T18:23:10.183Z,56.72
2022-10-19T18:26:19.793Z,56.57
2022-10-19T18:29:25.227Z,57.06
2022-10-19T18:32:27.311Z,57.47
2022-10-19T18:35:29.916Z,58.02
2022-10-19T18:38:32.201Z,58.27
2022-10-19T18:41:34.783Z,58.29
2022-10-19T18:44:36.844Z,58.22
2022-10-19T18:47:39.168Z,58.52
2022-10-19T18:50:41.318Z,59.17
2022-10-19T18:53:45.081Z,59.52
2022-10-19T18:56:47.236Z,59.91
2022-10-19T18:59:49.542Z,59.76
2022-10-19T19:02:55.360Z,59.93
2022-10-19T19:06:01.896Z,60.10
2022-10-19T19:09:07.756Z,59.81
2022-10-19T19:12:10.107Z,59.49
2022-10-19T19:15:12.320Z,60.78
2022-10-19T19:18:14.690Z,60.44
2022-10-19T19:21:23.106Z,61.44
2022-10-19T19:24:31.347Z,61.22
2022-10-19T19:27:33.541Z,61.20
2022-10-19T19:30:44.024Z,61.61
2022-10-19T19:33:47.371Z,59.53
2022-10-19T19:36:49.826Z,58.99
2022-10-19T19:39:51.913Z,58.97
2022-10-19T19:42:54.218Z,59.54
2022-10-19T19:46:04.556Z,59.08
2022-10-19T19:49:10.663Z,58.46
2022-10-19T19:52:13.082Z,59.84
2022-10-19T19:55:15.418Z,59.29
2022-10-19T19:58:18.807Z,60.25
2022-10-19T20:01:21.753Z,59.70
2022-10-19T20:04:24.176Z,59.20
2022-10-19T20:07:26.986Z,59.61
2022-10-19T20:10:29.321Z,58.47
2022-10-19T20:13:31.688Z,58.84
2022-10-19T20:16:34.284Z,58.31
2022-10-19T20:19:36.552Z,58.52
2022-10-19T20:22:39.103Z,58.49
2022-10-19T20:25:41.181Z,58.39
2022-10-19T20:28:44.220Z,58.97
2022-10-19T20:31:46.310Z,59.33
2022-10-19T20:34:48.624Z,58.21
2022-10-19T20:37:50.904Z,58.32
2022-10-19T20:40:54.519Z,59.36
2022-10-19T20:43:56.678Z,58.48
2022-10-19T20:46:59.097Z,58.78
2022-10-19T20:50:01.224Z,58.32
2022-10-19T20:53:03.583Z,58.54
2022-10-19T20:56:10.642Z,60.05
2022-10-19T20:59:17.577Z,60.46
2022-10-19T21:02:19.637Z,60.60
2022-10-19T21:05:22.462Z,61.44
2022-10-19T21:08:24.639Z,62.18
2022-10-19T21:11:29.278Z,62.53
2022-10-19T21:14:31.493Z,62.92
2022-10-19T21:17:33.867Z,64.24
2022-10-19T21:20:37.015Z,63.92
2022-10-19T21:23:39.496Z,64.73
2022-10-19T21:26:41.705Z,64.13
2022-10-19T21:29:44.088Z,64.36
2022-10-19T21:32:47.947Z,64.51
2022-10-19T21:38:57.526Z,65.01
2022-10-19T21:41:59.862Z,66.35
2022-10-19T21:45:18.253Z,66.52
2022-10-19T21:48:24.576Z,67.73
2022-10-19T21:51:43.182Z,66.92
2022-10-19T21:54:45.511Z,66.94
2022-10-19T21:57:47.623Z,66.86
2022-10-19T22:00:49.949Z,65.55
2022-10-19T22:04:00.255Z,66.53
2022-10-19T22:07:02.284Z,67.73
2022-10-19T22:10:05.051Z,67.71
2022-10-19T22:13:07.128Z,68.25
2022-10-19T22:16:13.183Z,69.16
2022-10-19T22:19:15.233Z,68.30
2022-10-19T22:22:17.579Z,69.08
2022-10-19T22:25:19.731Z,69.35
2022-10-19T22:28:22.052Z,69.48
2022-10-19T22:31:25.990Z,69.81
2022-10-19T22:34:28.342Z,70.85
2022-10-19T22:37:30.452Z,70.44
2022-10-19T22:40:32.817Z,70.57
2022-10-19T22:43:34.928Z,70.83
2022-10-19T22:46:37.316Z,70.62
2022-10-19T22:49:39.433Z,70.77
2022-10-19T22:52:41.813Z,71.59
2022-10-19T22:55:43.986Z,71.92
2022-10-19T22:58:46.408Z,72.28
2022-10-19T23:01:48.647Z,72.43
2022-10-19T23:04:51.087Z,73.03
2022-10-19T23:07:53.176Z,72.80
2022-10-19T23:10:55.790Z,73.10
2022-10-19T23:13:58.019Z,72.77
2022-10-19T23:17:00.420Z,73.39
2022-10-19T23:20:02.576Z,73.32
2022-10-19T23:23:05.230Z,72.95
2022-10-19T23:26:09.060Z,73.31
2022-10-19T23:29:11.439Z,73.66
2022-10-19T23:32:13.554Z,73.32
2022-10-19T23:35:16.017Z,73.55
2022-10-19T23:38:18.231Z,73.54
2022-10-19T23:41:21.356Z,74.21
2022-10-19T23:44:23.450Z,74.32
2022-10-19T23:47:25.875Z,73.75
2022-10-19T23:50:27.997Z,73.82
2022-10-19T23:53:36.963Z,73.76
2022-10-19T23:56:42.101Z,73.92
2022-10-19T23:59:44.443Z,74.22
